Daishinmaru No.3 — JM6362 — position and weather

sailwx.info

Track history (hours):
 
Tides and Currents Weather Stations Pressure Air Temp Water Temp Dewpoint Dewpoint Depression Visibility Wind Speed Wind Dir Waves Ship Positions

Daishinmaru No.3

Last reported at 2017-Sep-29 17:58 UTC. Time now 2017-Oct-20 03:09 UTC.
Position N 34°13' E 135°00'.
Warning: this ship's position is 20 days out of date.

Length 72 m; draft 4.2 m.

Type: Cargo ship. MMSI: 431600252.

Date/timePositionNaut miles runAvg speedWind from/ knotsBaromVisibWave heightAir tempDewpointWater temp
2017-Sep-29 17:58N 34°13' E 135°00'511.4
2017-Sep-29 17:31N 34°14' E 135°06'0 1.0
2017-Sep-29 17:01N 34°15' E 135°07'0 0.0
2017-Sep-29 16:28N 34°15' E 135°07'0 0.0
2017-Sep-29 15:58N 34°15' E 135°07'0 0.0
2017-Sep-29 15:28N 34°15' E 135°07'0 0.0
2017-Sep-29 14:58N 34°15' E 135°07'0 0.0
2017-Sep-29 14:28N 34°15' E 135°07'0 0.0
2017-Sep-29 13:58N 34°15' E 135°07'0 0.0
2017-Sep-29 13:28N 34°15' E 135°07'0 0.0
2017-Sep-29 12:58N 34°15' E 135°07'0 0.0
2017-Sep-29 12:28N 34°15' E 135°07'0 0.0
2017-Sep-29 11:58N 34°15' E 135°07'0 0.0
2017-Sep-29 11:28N 34°15' E 135°07'0 0.0
2017-Sep-29 10:58N 34°15' E 135°07'0 0.0
2017-Sep-29 10:28N 34°15' E 135°07'0 0.0
2017-Sep-29 09:58N 34°15' E 135°07'0 0.0
2017-Sep-29 09:28N 34°15' E 135°07'0 0.0
2017-Sep-29 08:59N 34°15' E 135°07'0 0.8
2017-Sep-29 08:30N 34°15' E 135°06'0 0.0
2017-Sep-29 08:00N 34°15' E 135°06'0 0.0
2017-Sep-29 07:30N 34°14' E 135°06'0 0.0
2017-Sep-29 07:00N 34°14' E 135°06'0 0.0
2017-Sep-29 06:30N 34°15' E 135°06'0 0.0
2017-Sep-29 06:00N 34°14' E 135°06'0 0.0
2017-Sep-29 05:27N 34°14' E 135°06'0 0.0
2017-Sep-29 05:00N 34°14' E 135°06'0 0.0
2017-Sep-29 04:30N 34°14' E 135°06'0 0.1
2017-Sep-29 04:00N 34°14' E 135°06'0 0.1
2017-Sep-29 03:30N 34°15' E 135°06'0 0.0
2017-Sep-29 03:00N 34°15' E 135°06'0 0.0
2017-Sep-29 02:30N 34°15' E 135°06'0 0.0
2017-Sep-29 02:00N 34°15' E 135°06'0 0.0
2017-Sep-29 01:30N 34°15' E 135°06'0 0.1
2017-Sep-29 00:57N 34°15' E 135°06'2 3.9
2017-Sep-29 00:30N 34°14' E 135°04'  
2017-Sep-26 12:35N 34°50' E 139°09'210.9
2017-Sep-26 12:26N 34°51' E 139°10'21 9.6
2017-Sep-26 10:16N 35°03' E 139°31'2 9.1
2017-Sep-26 10:00N 35°04' E 139°33'510.1
2017-Sep-26 09:30N 35°06' E 139°39'510.7
2017-Sep-26 09:00N 35°10' E 139°44'510.4
2017-Sep-26 08:30N 35°15' E 139°46'510.6
2017-Sep-26 08:00N 35°19' E 139°43'5 9.7
2017-Sep-26 07:30N 35°24' E 139°43'510.2
2017-Sep-26 07:00N 35°28' E 139°48'5 9.8
2017-Sep-26 06:30N 35°31' E 139°51'510.3
2017-Sep-26 06:00N 35°36' E 139°50'1 2.7
2017-Sep-26 05:30N 35°37' E 139°49'0 0.0
2017-Sep-26 04:54N 35°37' E 139°49'0 0.0
2017-Sep-26 04:30N 35°37' E 139°49'0 0.0
2017-Sep-26 03:57N 35°37' E 139°49'0 0.0
2017-Sep-26 03:27N 35°37' E 139°49'0 0.0
2017-Sep-26 02:54N 35°37' E 139°49'0 0.0
2017-Sep-26 02:24N 35°37' E 139°49'0 0.0
2017-Sep-26 01:57N 35°37' E 139°49'0 0.0
2017-Sep-26 01:30N 35°37' E 139°49'0 0.0
2017-Sep-26 01:00N 35°37' E 139°49'0 0.0
2017-Sep-26 00:30N 35°37' E 139°49'0 0.0
2017-Sep-26 00:00N 35°37' E 139°49'0 0.0
2017-Sep-25 23:30N 35°37' E 139°49'0 0.0
2017-Sep-25 23:00N 35°37' E 139°49'0 0.0
2017-Sep-25 22:31N 35°37' E 139°49'0 0.1
2017-Sep-25 22:01N 35°37' E 139°48'3 6.4
2017-Sep-25 21:31N 35°35' E 139°50'0 0.4
2017-Sep-25 20:49N 35°34' E 139°50'0 0.0
2017-Sep-25 20:28N 35°34' E 139°50'0 0.0
2017-Sep-25 19:58N 35°34' E 139°50'0 0.0
2017-Sep-25 19:28N 35°34' E 139°50'0 0.0
2017-Sep-25 18:58N 35°34' E 139°50'0 0.0
2017-Sep-25 18:28N 35°34' E 139°50'0 0.0
2017-Sep-25 17:58N 35°34' E 139°50'0 0.0
2017-Sep-25 17:28N 35°34' E 139°50'0 0.0
2017-Sep-25 16:58N 35°34' E 139°50'0 0.0
2017-Sep-25 16:28N 35°34' E 139°50'0 0.1
2017-Sep-25 15:58N 35°34' E 139°50'0 0.0
2017-Sep-25 15:25N 35°34' E 139°50'0 0.0
2017-Sep-25 14:58N 35°34' E 139°50'0 0.1
2017-Sep-25 14:28N 35°34' E 139°50'0 0.0
2017-Sep-25 13:58N 35°34' E 139°50'0 0.0
2017-Sep-25 13:28N 35°34' E 139°50'0 0.0
2017-Sep-25 12:58N 35°34' E 139°50'0 0.0
2017-Sep-25 12:28N 35°35' E 139°50'0 0.0
2017-Sep-25 11:58N 35°35' E 139°50'0 0.0
2017-Sep-25 11:28N 35°34' E 139°50'0 0.0
2017-Sep-25 10:58N 35°34' E 139°50'4 8.4
2017-Sep-25 10:30N 35°31' E 139°52'611.4
2017-Sep-25 10:00N 35°26' E 139°48'611.8
2017-Sep-25 09:30N 35°21' E 139°45'510.8
2017-Sep-25 09:00N 35°16' E 139°47'611.4
2017-Sep-25 08:30N 35°10' E 139°46'611.5
2017-Sep-25 08:00N 35°05' E 139°43'611.9
2017-Sep-25 07:30N 35°01' E 139°38'235 9.6
2017-Sep-24 07:11N 34°02' E 135°02'312.2
2017-Sep-24 06:57N 34°05' E 135°03'512.1
2017-Sep-24 06:30N 34°10' E 135°04'5 9.6
2017-Sep-24 06:00N 34°14' E 135°07'1 1.0
2017-Sep-24 05:29N 34°14' E 135°08'0 0.1
2017-Sep-24 04:59N 34°14' E 135°08'0 0.0
2017-Sep-24 04:29N 34°14' E 135°08'0 0.0
2017-Sep-24 03:59N 34°14' E 135°08'0 0.0
2017-Sep-24 03:29N 34°14' E 135°08'0 0.0
2017-Sep-24 02:59N 34°14' E 135°08'0 0.0
2017-Sep-24 02:29N 34°14' E 135°08'0 0.0
2017-Sep-24 01:59N 34°14' E 135°08'0 0.0
2017-Sep-24 01:29N 34°14' E 135°08'0 0.0
2017-Sep-24 00:59N 34°14' E 135°08'0 0.0
2017-Sep-24 00:31N 34°14' E 135°08'1 2.5
2017-Sep-23 23:58N 34°15' E 135°06'0 0.0
2017-Sep-23 23:30N 34°15' E 135°06'0 0.0
2017-Sep-23 23:01N 34°15' E 135°06'0 0.0
2017-Sep-23 22:31N 34°15' E 135°06'0 0.0
2017-Sep-23 22:01N 34°15' E 135°06'0 0.0
2017-Sep-23 21:30N 34°15' E 135°06'0 0.0
2017-Sep-23 21:01N 34°15' E 135°06'0 0.0
2017-Sep-23 20:30N 34°15' E 135°06'0 0.0
2017-Sep-23 20:01N 34°15' E 135°06'1 0.0
2017-Sep-22 01:57N 34°14' E 135°08'0 0.0
2017-Sep-22 01:30N 34°14' E 135°08'0 0.0
2017-Sep-22 01:01N 34°14' E 135°08'0 0.0
2017-Sep-22 00:30N 34°14' E 135°08'0 0.0
2017-Sep-22 00:00N 34°14' E 135°08'0 0.0
2017-Sep-21 23:30N 34°14' E 135°08'0 0.0
2017-Sep-21 23:01N 34°14' E 135°08'0 0.0
2017-Sep-21 22:31N 34°14' E 135°08'0 0.0
2017-Sep-21 22:01N 34°14' E 135°08'2 3.5
2017-Sep-21 21:31N 34°15' E 135°06'0 0.1
2017-Sep-21 20:54N 34°15' E 135°06'0 0.1
2017-Sep-21 20:30N 34°15' E 135°06'0 0.1
2017-Sep-21 20:00N 34°15' E 135°06'0 0.0
2017-Sep-21 19:30N 34°15' E 135°06'0 0.0
2017-Sep-21 19:00N 34°15' E 135°06'0 0.0
2017-Sep-21 18:30N 34°15' E 135°06'0 0.0
2017-Sep-21 18:00N 34°15' E 135°06'0 0.1
2017-Sep-21 17:30N 34°15' E 135°06'0 0.0
2017-Sep-21 17:00N 34°15' E 135°06'0 0.1
2017-Sep-21 16:30N 34°15' E 135°06'0 0.1
2017-Sep-21 15:54N 34°15' E 135°06'0 0.1
2017-Sep-21 15:27N 34°15' E 135°06'0 0.0
2017-Sep-21 15:00N 34°15' E 135°06'0 0.1
2017-Sep-21 14:30N 34°15' E 135°06'0 0.1
2017-Sep-21 13:51N 34°15' E 135°06'0 0.1
2017-Sep-21 13:30N 34°15' E 135°06'0 0.1
2017-Sep-21 12:42N 34°15' E 135°06'0 0.1
2017-Sep-21 12:31N 34°15' E 135°06'4 8.2
2017-Sep-21 12:00N 34°11' E 135°03'  
Track history (hours):
 
Tides and Currents Weather Stations Pressure Air Temp Water Temp Dewpoint Dewpoint Depression Visibility Wind Speed Wind Dir Waves Ship Positions

Daishinmaru No.3

Last reported at 2017-Sep-29 17:58 UTC. Time now 2017-Oct-20 03:09 UTC.
Position N 34°13' E 135°00'.
Warning: this ship's position is 20 days out of date.

Length 72 m; draft 4.2 m.

Type: Cargo ship. MMSI: 431600252.

Date/timePositionNaut miles runAvg speedWind from/ knotsBaromVisibWave heightAir tempDewpointWater temp
2017-Sep-29 17:58N 34°13' E 135°00'511.4
2017-Sep-29 17:31N 34°14' E 135°06'0 1.0
2017-Sep-29 17:01N 34°15' E 135°07'0 0.0
2017-Sep-29 16:28N 34°15' E 135°07'0 0.0
2017-Sep-29 15:58N 34°15' E 135°07'0 0.0
2017-Sep-29 15:28N 34°15' E 135°07'0 0.0
2017-Sep-29 14:58N 34°15' E 135°07'0 0.0
2017-Sep-29 14:28N 34°15' E 135°07'0 0.0
2017-Sep-29 13:58N 34°15' E 135°07'0 0.0
2017-Sep-29 13:28N 34°15' E 135°07'0 0.0
2017-Sep-29 12:58N 34°15' E 135°07'0 0.0
2017-Sep-29 12:28N 34°15' E 135°07'0 0.0
2017-Sep-29 11:58N 34°15' E 135°07'0 0.0
2017-Sep-29 11:28N 34°15' E 135°07'0 0.0
2017-Sep-29 10:58N 34°15' E 135°07'0 0.0
2017-Sep-29 10:28N 34°15' E 135°07'0 0.0
2017-Sep-29 09:58N 34°15' E 135°07'0 0.0
2017-Sep-29 09:28N 34°15' E 135°07'0 0.0
2017-Sep-29 08:59N 34°15' E 135°07'0 0.8
2017-Sep-29 08:30N 34°15' E 135°06'0 0.0
2017-Sep-29 08:00N 34°15' E 135°06'0 0.0
2017-Sep-29 07:30N 34°14' E 135°06'0 0.0
2017-Sep-29 07:00N 34°14' E 135°06'0 0.0
2017-Sep-29 06:30N 34°15' E 135°06'0 0.0
2017-Sep-29 06:00N 34°14' E 135°06'0 0.0
2017-Sep-29 05:27N 34°14' E 135°06'0 0.0
2017-Sep-29 05:00N 34°14' E 135°06'0 0.0
2017-Sep-29 04:30N 34°14' E 135°06'0 0.1
2017-Sep-29 04:00N 34°14' E 135°06'0 0.1
2017-Sep-29 03:30N 34°15' E 135°06'0 0.0
2017-Sep-29 03:00N 34°15' E 135°06'0 0.0
2017-Sep-29 02:30N 34°15' E 135°06'0 0.0
2017-Sep-29 02:00N 34°15' E 135°06'0 0.0
2017-Sep-29 01:30N 34°15' E 135°06'0 0.1
2017-Sep-29 00:57N 34°15' E 135°06'2 3.9
2017-Sep-29 00:30N 34°14' E 135°04'  
2017-Sep-26 12:35N 34°50' E 139°09'210.9
2017-Sep-26 12:26N 34°51' E 139°10'21 9.6
2017-Sep-26 10:16N 35°03' E 139°31'2 9.1
2017-Sep-26 10:00N 35°04' E 139°33'510.1
2017-Sep-26 09:30N 35°06' E 139°39'510.7
2017-Sep-26 09:00N 35°10' E 139°44'510.4
2017-Sep-26 08:30N 35°15' E 139°46'510.6
2017-Sep-26 08:00N 35°19' E 139°43'5 9.7
2017-Sep-26 07:30N 35°24' E 139°43'510.2
2017-Sep-26 07:00N 35°28' E 139°48'5 9.8
2017-Sep-26 06:30N 35°31' E 139°51'510.3
2017-Sep-26 06:00N 35°36' E 139°50'1 2.7
2017-Sep-26 05:30N 35°37' E 139°49'0 0.0
2017-Sep-26 04:54N 35°37' E 139°49'0 0.0
2017-Sep-26 04:30N 35°37' E 139°49'0 0.0
2017-Sep-26 03:57N 35°37' E 139°49'0 0.0
2017-Sep-26 03:27N 35°37' E 139°49'0 0.0
2017-Sep-26 02:54N 35°37' E 139°49'0 0.0
2017-Sep-26 02:24N 35°37' E 139°49'0 0.0
2017-Sep-26 01:57N 35°37' E 139°49'0 0.0
2017-Sep-26 01:30N 35°37' E 139°49'0 0.0
2017-Sep-26 01:00N 35°37' E 139°49'0 0.0
2017-Sep-26 00:30N 35°37' E 139°49'0 0.0
2017-Sep-26 00:00N 35°37' E 139°49'0 0.0
2017-Sep-25 23:30N 35°37' E 139°49'0 0.0
2017-Sep-25 23:00N 35°37' E 139°49'0 0.0
2017-Sep-25 22:31N 35°37' E 139°49'0 0.1
2017-Sep-25 22:01N 35°37' E 139°48'3 6.4
2017-Sep-25 21:31N 35°35' E 139°50'0 0.4
2017-Sep-25 20:49N 35°34' E 139°50'0 0.0
2017-Sep-25 20:28N 35°34' E 139°50'0 0.0
2017-Sep-25 19:58N 35°34' E 139°50'0 0.0
2017-Sep-25 19:28N 35°34' E 139°50'0 0.0
2017-Sep-25 18:58N 35°34' E 139°50'0 0.0
2017-Sep-25 18:28N 35°34' E 139°50'0 0.0
2017-Sep-25 17:58N 35°34' E 139°50'0 0.0
2017-Sep-25 17:28N 35°34' E 139°50'0 0.0
2017-Sep-25 16:58N 35°34' E 139°50'0 0.0
2017-Sep-25 16:28N 35°34' E 139°50'0 0.1
2017-Sep-25 15:58N 35°34' E 139°50'0 0.0
2017-Sep-25 15:25N 35°34' E 139°50'0 0.0
2017-Sep-25 14:58N 35°34' E 139°50'0 0.1
2017-Sep-25 14:28N 35°34' E 139°50'0 0.0
2017-Sep-25 13:58N 35°34' E 139°50'0 0.0
2017-Sep-25 13:28N 35°34' E 139°50'0 0.0
2017-Sep-25 12:58N 35°34' E 139°50'0 0.0
2017-Sep-25 12:28N 35°35' E 139°50'0 0.0
2017-Sep-25 11:58N 35°35' E 139°50'0 0.0
2017-Sep-25 11:28N 35°34' E 139°50'0 0.0
2017-Sep-25 10:58N 35°34' E 139°50'4 8.4
2017-Sep-25 10:30N 35°31' E 139°52'611.4
2017-Sep-25 10:00N 35°26' E 139°48'611.8
2017-Sep-25 09:30N 35°21' E 139°45'510.8
2017-Sep-25 09:00N 35°16' E 139°47'611.4
2017-Sep-25 08:30N 35°10' E 139°46'611.5
2017-Sep-25 08:00N 35°05' E 139°43'611.9
2017-Sep-25 07:30N 35°01' E 139°38'235 9.6
2017-Sep-24 07:11N 34°02' E 135°02'312.2
2017-Sep-24 06:57N 34°05' E 135°03'512.1
2017-Sep-24 06:30N 34°10' E 135°04'5 9.6
2017-Sep-24 06:00N 34°14' E 135°07'1 1.0
2017-Sep-24 05:29N 34°14' E 135°08'0 0.1
2017-Sep-24 04:59N 34°14' E 135°08'0 0.0
2017-Sep-24 04:29N 34°14' E 135°08'0 0.0
2017-Sep-24 03:59N 34°14' E 135°08'0 0.0
2017-Sep-24 03:29N 34°14' E 135°08'0 0.0
2017-Sep-24 02:59N 34°14' E 135°08'0 0.0
2017-Sep-24 02:29N 34°14' E 135°08'0 0.0
2017-Sep-24 01:59N 34°14' E 135°08'0 0.0
2017-Sep-24 01:29N 34°14' E 135°08'0 0.0
2017-Sep-24 00:59N 34°14' E 135°08'0 0.0
2017-Sep-24 00:31N 34°14' E 135°08'1 2.5
2017-Sep-23 23:58N 34°15' E 135°06'0 0.0
2017-Sep-23 23:30N 34°15' E 135°06'0 0.0
2017-Sep-23 23:01N 34°15' E 135°06'0 0.0
2017-Sep-23 22:31N 34°15' E 135°06'0 0.0
2017-Sep-23 22:01N 34°15' E 135°06'0 0.0
2017-Sep-23 21:30N 34°15' E 135°06'0 0.0
2017-Sep-23 21:01N 34°15' E 135°06'0 0.0
2017-Sep-23 20:30N 34°15' E 135°06'0 0.0
2017-Sep-23 20:01N 34°15' E 135°06'1 0.0
2017-Sep-22 01:57N 34°14' E 135°08'0 0.0
2017-Sep-22 01:30N 34°14' E 135°08'0 0.0
2017-Sep-22 01:01N 34°14' E 135°08'0 0.0
2017-Sep-22 00:30N 34°14' E 135°08'0 0.0
2017-Sep-22 00:00N 34°14' E 135°08'0 0.0
2017-Sep-21 23:30N 34°14' E 135°08'0 0.0
2017-Sep-21 23:01N 34°14' E 135°08'0 0.0
2017-Sep-21 22:31N 34°14' E 135°08'0 0.0
2017-Sep-21 22:01N 34°14' E 135°08'2 3.5
2017-Sep-21 21:31N 34°15' E 135°06'0 0.1
2017-Sep-21 20:54N 34°15' E 135°06'0 0.1
2017-Sep-21 20:30N 34°15' E 135°06'0 0.1
2017-Sep-21 20:00N 34°15' E 135°06'0 0.0
2017-Sep-21 19:30N 34°15' E 135°06'0 0.0
2017-Sep-21 19:00N 34°15' E 135°06'0 0.0
2017-Sep-21 18:30N 34°15' E 135°06'0 0.0
2017-Sep-21 18:00N 34°15' E 135°06'0 0.1
2017-Sep-21 17:30N 34°15' E 135°06'0 0.0
2017-Sep-21 17:00N 34°15' E 135°06'0 0.1
2017-Sep-21 16:30N 34°15' E 135°06'0 0.1
2017-Sep-21 15:54N 34°15' E 135°06'0 0.1
2017-Sep-21 15:27N 34°15' E 135°06'0 0.0
2017-Sep-21 15:00N 34°15' E 135°06'0 0.1
2017-Sep-21 14:30N 34°15' E 135°06'0 0.1
2017-Sep-21 13:51N 34°15' E 135°06'0 0.1
2017-Sep-21 13:30N 34°15' E 135°06'0 0.1
2017-Sep-21 12:42N 34°15' E 135°06'0 0.1
2017-Sep-21 12:31N 34°15' E 135°06'4 8.2
2017-Sep-21 12:00N 34°11' E 135°03'  

Dump ship's entire track history